sensor_id;sensor_type;location;lat;lon;timestamp;temperature;humidity
71523;HTU21D;59343;51.102;5.884;2022-08-21T00:02:27;19.81;70.45
71523;HTU21D;59343;51.102;5.884;2022-08-21T00:04:54;19.77;70.46
71523;HTU21D;59343;51.102;5.884;2022-08-21T00:07:20;19.74;70.75
71523;HTU21D;59343;51.102;5.884;2022-08-21T00:09:46;19.69;70.73
71523;HTU21D;59343;51.102;5.884;2022-08-21T00:12:13;19.65;70.90
71523;HTU21D;59343;51.102;5.884;2022-08-21T00:14:40;19.61;71.04
71523;HTU21D;59343;51.102;5.884;2022-08-21T00:17:06;19.60;71.01
71523;HTU21D;59343;51.102;5.884;2022-08-21T00:19:33;19.57;71.25
71523;HTU21D;59343;51.102;5.884;2022-08-21T00:21:59;19.56;71.26
71523;HTU21D;59343;51.102;5.884;2022-08-21T00:24:26;19.55;71.22
71523;HTU21D;59343;51.102;5.884;2022-08-21T00:26:52;19.51;70.96
71523;HTU21D;59343;51.102;5.884;2022-08-21T00:29:18;19.50;71.03
71523;HTU21D;59343;51.102;5.884;2022-08-21T00:31:45;19.48;71.13
71523;HTU21D;59343;51.102;5.884;2022-08-21T00:34:12;19.45;71.26
71523;HTU21D;59343;51.102;5.884;2022-08-21T00:36:39;19.44;71.26
71523;HTU21D;59343;51.102;5.884;2022-08-21T00:39:07;19.42;71.39
71523;HTU21D;59343;51.102;5.884;2022-08-21T00:41:35;19.40;71.58
71523;HTU21D;59343;51.102;5.884;2022-08-21T00:44:03;19.38;71.90
71523;HTU21D;59343;51.102;5.884;2022-08-21T00:46:30;19.32;71.87
71523;HTU21D;59343;51.102;5.884;2022-08-21T00:48:56;19.29;71.80
71523;HTU21D;59343;51.102;5.884;2022-08-21T00:51:35;19.30;71.64
71523;HTU21D;59343;51.102;5.884;2022-08-21T00:54:04;19.29;71.34
71523;HTU21D;59343;51.102;5.884;2022-08-21T00:56:30;19.29;71.22
71523;HTU21D;59343;51.102;5.884;2022-08-21T00:58:57;19.29;71.04
71523;HTU21D;59343;51.102;5.884;2022-08-21T01:01:25;19.27;71.15
71523;HTU21D;59343;51.102;5.884;2022-08-21T01:03:52;19.25;71.53
71523;HTU21D;59343;51.102;5.884;2022-08-21T01:06:18;19.21;71.54
71523;HTU21D;59343;51.102;5.884;2022-08-21T01:08:44;19.18;71.35
71523;HTU21D;59343;51.102;5.884;2022-08-21T01:11:11;19.21;71.15
71523;HTU21D;59343;51.102;5.884;2022-08-21T01:13:38;19.18;71.16
71523;HTU21D;59343;51.102;5.884;2022-08-21T01:16:10;19.13;71.33
71523;HTU21D;59343;51.102;5.884;2022-08-21T01:18:36;19.08;71.67
71523;HTU21D;59343;51.102;5.884;2022-08-21T01:21:14;19.06;71.58
71523;HTU21D;59343;51.102;5.884;2022-08-21T01:23:43;19.05;71.47
71523;HTU21D;59343;51.102;5.884;2022-08-21T01:26:11;19.03;71.39
71523;HTU21D;59343;51.102;5.884;2022-08-21T01:31:42;18.92;71.88
71523;HTU21D;59343;51.102;5.884;2022-08-21T01:34:09;18.88;71.77
71523;HTU21D;59343;51.102;5.884;2022-08-21T01:36:36;18.86;71.96
71523;HTU21D;59343;51.102;5.884;2022-08-21T01:39:04;18.79;72.40
71523;HTU21D;59343;51.102;5.884;2022-08-21T01:41:30;18.74;72.58
71523;HTU21D;59343;51.102;5.884;2022-08-21T01:43:56;18.74;72.64
71523;HTU21D;59343;51.102;5.884;2022-08-21T01:46:22;18.73;72.58
71523;HTU21D;59343;51.102;5.884;2022-08-21T01:48:48;18.71;72.75
71523;HTU21D;59343;51.102;5.884;2022-08-21T01:51:14;18.70;72.64
71523;HTU21D;59343;51.102;5.884;2022-08-21T01:53:40;18.70;72.25
71523;HTU21D;59343;51.102;5.884;2022-08-21T01:56:08;18.72;71.74
71523;HTU21D;59343;51.102;5.884;2022-08-21T01:58:34;18.71;71.45
71523;HTU21D;59343;51.102;5.884;2022-08-21T02:01:02;18.71;71.53
71523;HTU21D;59343;51.102;5.884;2022-08-21T02:03:29;18.70;71.42
71523;HTU21D;59343;51.102;5.884;2022-08-21T02:05:58;18.66;71.78
71523;HTU21D;59343;51.102;5.884;2022-08-21T02:08:24;18.61;72.02
71523;HTU21D;59343;51.102;5.884;2022-08-21T02:10:51;18.62;71.99
71523;HTU21D;59343;51.102;5.884;2022-08-21T02:13:17;18.59;71.82
71523;HTU21D;59343;51.102;5.884;2022-08-21T02:15:44;18.61;71.59
71523;HTU21D;59343;51.102;5.884;2022-08-21T02:18:10;18.58;71.53
71523;HTU21D;59343;51.102;5.884;2022-08-21T02:20:41;18.56;71.36
71523;HTU21D;59343;51.102;5.884;2022-08-21T02:23:10;18.53;71.59
71523;HTU21D;59343;51.102;5.884;2022-08-21T02:25:37;18.46;71.77
71523;HTU21D;59343;51.102;5.884;2022-08-21T02:28:10;18.42;71.84
71523;HTU21D;59343;51.102;5.884;2022-08-21T02:30:43;18.40;71.72
71523;HTU21D;59343;51.102;5.884;2022-08-21T02:33:10;18.39;71.57
71523;HTU21D;59343;51.102;5.884;2022-08-21T02:35:39;18.36;71.42
71523;HTU21D;59343;51.102;5.884;2022-08-21T02:38:10;18.33;71.29
71523;HTU21D;59343;51.102;5.884;2022-08-21T02:40:39;18.33;71.21
71523;HTU21D;59343;51.102;5.884;2022-08-21T02:43:07;18.33;71.06
71523;HTU21D;59343;51.102;5.884;2022-08-21T02:45:34;18.29;71.10
71523;HTU21D;59343;51.102;5.884;2022-08-21T02:48:06;18.25;71.25
71523;HTU21D;59343;51.102;5.884;2022-08-21T02:50:36;18.20;71.51
71523;HTU21D;59343;51.102;5.884;2022-08-21T02:53:05;18.18;71.61
71523;HTU21D;59343;51.102;5.884;2022-08-21T02:55:37;18.14;71.71
71523;HTU21D;59343;51.102;5.884;2022-08-21T02:58:06;18.13;71.47
71523;HTU21D;59343;51.102;5.884;2022-08-21T03:00:35;18.11;71.67
71523;HTU21D;59343;51.102;5.884;2022-08-21T03:03:03;18.10;71.51
71523;HTU21D;59343;51.102;5.884;2022-08-21T03:05:30;18.10;71.49
71523;HTU21D;59343;51.102;5.884;2022-08-21T03:07:58;18.09;71.40
71523;HTU21D;59343;51.102;5.884;2022-08-21T03:10:26;18.10;71.24
71523;HTU21D;59343;51.102;5.884;2022-08-21T03:12:52;18.08;71.16
71523;HTU21D;59343;51.102;5.884;2022-08-21T03:15:21;18.05;71.28
71523;HTU21D;59343;51.102;5.884;2022-08-21T03:17:47;18.03;71.16
71523;HTU21D;59343;51.102;5.884;2022-08-21T03:20:17;18.02;71.16
71523;HTU21D;59343;51.102;5.884;2022-08-21T03:22:46;18.00;71.07
71523;HTU21D;59343;51.102;5.884;2022-08-21T03:25:12;18.02;70.94
71523;HTU21D;59343;51.102;5.884;2022-08-21T03:27:38;18.02;70.89
71523;HTU21D;59343;51.102;5.884;2022-08-21T03:30:06;17.97;70.93
71523;HTU21D;59343;51.102;5.884;2022-08-21T03:32:32;17.96;71.08
71523;HTU21D;59343;51.102;5.884;2022-08-21T03:34:59;17.95;71.03
71523;HTU21D;59343;51.102;5.884;2022-08-21T03:37:26;17.95;71.16
71523;HTU21D;59343;51.102;5.884;2022-08-21T03:39:52;17.93;71.19
71523;HTU21D;59343;51.102;5.884;2022-08-21T03:42:18;17.93;71.19
71523;HTU21D;59343;51.102;5.884;2022-08-21T03:44:43;17.92;71.23
71523;HTU21D;59343;51.102;5.884;2022-08-21T03:47:10;17.91;71.27
71523;HTU21D;59343;51.102;5.884;2022-08-21T03:49:36;17.91;71.18
71523;HTU21D;59343;51.102;5.884;2022-08-21T03:52:03;17.91;71.23
71523;HTU21D;59343;51.102;5.884;2022-08-21T03:54:30;17.88;71.23
71523;HTU21D;59343;51.102;5.884;2022-08-21T03:56:57;17.85;71.20
71523;HTU21D;59343;51.102;5.884;2022-08-21T03:59:23;17.85;71.35
71523;HTU21D;59343;51.102;5.884;2022-08-21T04:01:58;17.80;71.49
71523;HTU21D;59343;51.102;5.884;2022-08-21T04:04:24;17.77;71.66
71523;HTU21D;59343;51.102;5.884;2022-08-21T04:06:50;17.74;71.80
71523;HTU21D;59343;51.102;5.884;2022-08-21T04:09:17;17.74;72.02
71523;HTU21D;59343;51.102;5.884;2022-08-21T04:11:44;17.73;71.90
71523;HTU21D;59343;51.102;5.884;2022-08-21T04:14:12;17.74;71.81
71523;HTU21D;59343;51.102;5.884;2022-08-21T04:16:39;17.70;72.13
71523;HTU21D;59343;51.102;5.884;2022-08-21T04:19:04;17.68;72.20
71523;HTU21D;59343;51.102;5.884;2022-08-21T04:21:30;17.67;72.21
71523;HTU21D;59343;51.102;5.884;2022-08-21T04:23:57;17.68;72.19
71523;HTU21D;59343;51.102;5.884;2022-08-21T04:26:24;17.68;71.93
71523;HTU21D;59343;51.102;5.884;2022-08-21T04:28:51;17.69;71.71
71523;HTU21D;59343;51.102;5.884;2022-08-21T04:31:18;17.69;71.42
71523;HTU21D;59343;51.102;5.884;2022-08-21T04:33:44;17.68;71.37
71523;HTU21D;59343;51.102;5.884;2022-08-21T04:36:11;17.66;71.55
71523;HTU21D;59343;51.102;5.884;2022-08-21T04:38:37;17.66;71.46
71523;HTU21D;59343;51.102;5.884;2022-08-21T04:41:04;17.65;71.59
71523;HTU21D;59343;51.102;5.884;2022-08-21T04:43:30;17.61;71.55
71523;HTU21D;59343;51.102;5.884;2022-08-21T04:46:00;17.62;71.45
71523;HTU21D;59343;51.102;5.884;2022-08-21T04:48:26;17.62;71.16
71523;HTU21D;59343;51.102;5.884;2022-08-21T04:55:54;17.61;70.82
71523;HTU21D;59343;51.102;5.884;2022-08-21T04:58:25;17.58;70.93
71523;HTU21D;59343;51.102;5.884;2022-08-21T05:00:54;17.55;71.03
71523;HTU21D;59343;51.102;5.884;2022-08-21T05:03:22;17.54;71.16
71523;HTU21D;59343;51.102;5.884;2022-08-21T05:05:49;17.51;71.29
71523;HTU21D;59343;51.102;5.884;2022-08-21T05:08:19;17.52;71.19
71523;HTU21D;59343;51.102;5.884;2022-08-21T05:10:47;17.54;71.17
71523;HTU21D;59343;51.102;5.884;2022-08-21T05:13:14;17.53;71.26
71523;HTU21D;59343;51.102;5.884;2022-08-21T05:15:40;17.55;71.21
71523;HTU21D;59343;51.102;5.884;2022-08-21T05:18:07;17.60;70.99
71523;HTU21D;59343;51.102;5.884;2022-08-21T05:20:34;17.62;70.83
71523;HTU21D;59343;51.102;5.884;2022-08-21T05:23:08;17.63;70.69
71523;HTU21D;59343;51.102;5.884;2022-08-21T05:25:35;17.64;70.66
71523;HTU21D;59343;51.102;5.884;2022-08-21T05:28:01;17.67;70.71
71523;HTU21D;59343;51.102;5.884;2022-08-21T05:30:27;17.67;70.71
71523;HTU21D;59343;51.102;5.884;2022-08-21T05:32:58;17.69;70.71
71523;HTU21D;59343;51.102;5.884;2022-08-21T05:35:26;17.67;70.80
71523;HTU21D;59343;51.102;5.884;2022-08-21T05:37:52;17.67;70.80
71523;HTU21D;59343;51.102;5.884;2022-08-21T05:40:22;17.65;71.00
71523;HTU21D;59343;51.102;5.884;2022-08-21T05:42:49;17.64;71.35
71523;HTU21D;59343;51.102;5.884;2022-08-21T05:45:15;17.64;71.48
71523;HTU21D;59343;51.102;5.884;2022-08-21T05:47:42;17.65;71.29
71523;HTU21D;59343;51.102;5.884;2022-08-21T05:50:08;17.67;71.21
71523;HTU21D;59343;51.102;5.884;2022-08-21T05:52:34;17.66;71.29
71523;HTU21D;59343;51.102;5.884;2022-08-21T05:55:00;17.68;71.36
71523;HTU21D;59343;51.102;5.884;2022-08-21T05:57:27;17.70;71.45
71523;HTU21D;59343;51.102;5.884;2022-08-21T05:59:52;17.74;71.42
71523;HTU21D;59343;51.102;5.884;2022-08-21T06:02:19;17.77;71.28
71523;HTU21D;59343;51.102;5.884;2022-08-21T06:04:45;17.78;71.26
71523;HTU21D;59343;51.102;5.884;2022-08-21T06:07:11;17.80;71.24
71523;HTU21D;59343;51.102;5.884;2022-08-21T06:09:37;17.85;71.24
71523;HTU21D;59343;51.102;5.884;2022-08-21T06:12:08;17.91;71.17
71523;HTU21D;59343;51.102;5.884;2022-08-21T06:14:36;17.95;71.30
71523;HTU21D;59343;51.102;5.884;2022-08-21T06:17:07;18.05;71.13
71523;HTU21D;59343;51.102;5.884;2022-08-21T06:19:34;18.18;71.22
71523;HTU21D;59343;51.102;5.884;2022-08-21T06:22:00;18.53;70.98
71523;HTU21D;59343;51.102;5.884;2022-08-21T06:24:26;18.83;69.59
71523;HTU21D;59343;51.102;5.884;2022-08-21T06:26:52;19.10;68.36
71523;HTU21D;59343;51.102;5.884;2022-08-21T06:29:19;19.28;67.07
71523;HTU21D;59343;51.102;5.884;2022-08-21T06:31:47;19.30;66.70
71523;HTU21D;59343;51.102;5.884;2022-08-21T06:34:14;19.26;66.67
71523;HTU21D;59343;51.102;5.884;2022-08-21T06:36:41;19.17;66.97
71523;HTU21D;59343;51.102;5.884;2022-08-21T06:39:07;19.11;67.23
71523;HTU21D;59343;51.102;5.884;2022-08-21T06:41:33;19.08;67.60
71523;HTU21D;59343;51.102;5.884;2022-08-21T06:44:00;19.09;67.81
71523;HTU21D;59343;51.102;5.884;2022-08-21T06:46:28;19.09;68.07
71523;HTU21D;59343;51.102;5.884;2022-08-21T06:48:55;19.07;68.11
71523;HTU21D;59343;51.102;5.884;2022-08-21T06:51:22;19.10;68.38
71523;HTU21D;59343;51.102;5.884;2022-08-21T06:53:48;19.14;68.40
71523;HTU21D;59343;51.102;5.884;2022-08-21T06:56:14;19.14;68.41
71523;HTU21D;59343;51.102;5.884;2022-08-21T06:58:40;19.17;68.43
71523;HTU21D;59343;51.102;5.884;2022-08-21T07:01:06;19.20;68.29
71523;HTU21D;59343;51.102;5.884;2022-08-21T07:03:43;19.20;68.53
71523;HTU21D;59343;51.102;5.884;2022-08-21T07:06:10;19.23;68.30
71523;HTU21D;59343;51.102;5.884;2022-08-21T07:08:37;19.25;68.25
71523;HTU21D;59343;51.102;5.884;2022-08-21T07:11:09;19.31;68.18
71523;HTU21D;59343;51.102;5.884;2022-08-21T07:13:36;19.36;67.86
71523;HTU21D;59343;51.102;5.884;2022-08-21T07:16:02;19.38;67.64
71523;HTU21D;59343;51.102;5.884;2022-08-21T07:18:28;19.41;67.87
71523;HTU21D;59343;51.102;5.884;2022-08-21T07:20:55;19.44;67.71
71523;HTU21D;59343;51.102;5.884;2022-08-21T07:23:34;19.50;67.55
71523;HTU21D;59343;51.102;5.884;2022-08-21T07:26:01;19.56;67.52
71523;HTU21D;59343;51.102;5.884;2022-08-21T07:28:28;19.60;67.08
71523;HTU21D;59343;51.102;5.884;2022-08-21T07:30:58;19.62;67.06
71523;HTU21D;59343;51.102;5.884;2022-08-21T07:33:26;19.67;66.99
71523;HTU21D;59343;51.102;5.884;2022-08-21T07:35:52;19.73;66.89
71523;HTU21D;59343;51.102;5.884;2022-08-21T07:38:18;19.75;66.54
71523;HTU21D;59343;51.102;5.884;2022-08-21T07:40:46;19.81;66.36
71523;HTU21D;59343;51.102;5.884;2022-08-21T07:43:12;19.85;66.14
71523;HTU21D;59343;51.102;5.884;2022-08-21T07:45:38;19.89;66.40
71523;HTU21D;59343;51.102;5.884;2022-08-21T07:48:04;19.97;66.40
71523;HTU21D;59343;51.102;5.884;2022-08-21T07:50:30;20.04;66.17
71523;HTU21D;59343;51.102;5.884;2022-08-21T07:52:56;20.14;66.12
71523;HTU21D;59343;51.102;5.884;2022-08-21T07:55:22;20.22;65.89
71523;HTU21D;59343;51.102;5.884;2022-08-21T07:57:48;20.31;65.63
71523;HTU21D;59343;51.102;5.884;2022-08-21T08:00:19;20.37;65.62
71523;HTU21D;59343;51.102;5.884;2022-08-21T08:02:48;20.47;65.24
71523;HTU21D;59343;51.102;5.884;2022-08-21T08:05:17;20.54;65.12
71523;HTU21D;59343;51.102;5.884;2022-08-21T08:07:43;20.59;65.04
71523;HTU21D;59343;51.102;5.884;2022-08-21T08:10:10;20.65;64.82
71523;HTU21D;59343;51.102;5.884;2022-08-21T08:12:38;20.68;64.21
71523;HTU21D;59343;51.102;5.884;2022-08-21T08:15:06;20.69;64.27
71523;HTU21D;59343;51.102;5.884;2022-08-21T08:17:33;20.69;64.21
71523;HTU21D;59343;51.102;5.884;2022-08-21T08:19:59;20.77;64.43
71523;HTU21D;59343;51.102;5.884;2022-08-21T08:22:28;20.80;64.27
71523;HTU21D;59343;51.102;5.884;2022-08-21T08:25:09;20.86;64.04
71523;HTU21D;59343;51.102;5.884;2022-08-21T08:28:02;20.92;63.59
71523;HTU21D;59343;51.102;5.884;2022-08-21T08:30:28;20.93;63.89
71523;HTU21D;59343;51.102;5.884;2022-08-21T08:32:54;21.02;63.97
71523;HTU21D;59343;51.102;5.884;2022-08-21T08:35:21;21.05;63.41
71523;HTU21D;59343;51.102;5.884;2022-08-21T08:37:47;21.14;63.56
71523;HTU21D;59343;51.102;5.884;2022-08-21T08:40:21;21.25;63.07
71523;HTU21D;59343;51.102;5.884;2022-08-21T08:42:48;21.31;62.33
71523;HTU21D;59343;51.102;5.884;2022-08-21T08:45:19;21.28;62.44
71523;HTU21D;59343;51.102;5.884;2022-08-21T08:47:54;21.30;62.67
71523;HTU21D;59343;51.102;5.884;2022-08-21T08:50:38;21.37;62.28
71523;HTU21D;59343;51.102;5.884;2022-08-21T08:53:14;21.43;61.81
71523;HTU21D;59343;51.102;5.884;2022-08-21T08:55:43;21.49;61.02
71523;HTU21D;59343;51.102;5.884;2022-08-21T08:58:39;21.52;60.11
71523;HTU21D;59343;51.102;5.884;2022-08-21T09:01:15;21.57;60.36
71523;HTU21D;59343;51.102;5.884;2022-08-21T09:03:42;21.65;60.20
71523;HTU21D;59343;51.102;5.884;2022-08-21T09:11:33;21.87;60.00
71523;HTU21D;59343;51.102;5.884;2022-08-21T09:14:24;21.93;60.06
71523;HTU21D;59343;51.102;5.884;2022-08-21T09:27:25;22.33;59.41
71523;HTU21D;59343;51.102;5.884;2022-08-21T09:29:54;22.35;59.25
71523;HTU21D;59343;51.102;5.884;2022-08-21T09:32:23;22.38;59.19
71523;HTU21D;59343;51.102;5.884;2022-08-21T09:37:21;22.52;58.84
71523;HTU21D;59343;51.102;5.884;2022-08-21T09:39:46;22.58;58.93
71523;HTU21D;59343;51.102;5.884;2022-08-21T09:42:25;22.63;58.49
71523;HTU21D;59343;51.102;5.884;2022-08-21T09:45:13;22.65;58.40
71523;HTU21D;59343;51.102;5.884;2022-08-21T09:47:41;22.71;58.34
71523;HTU21D;59343;51.102;5.884;2022-08-21T09:50:14;22.80;58.35
71523;HTU21D;59343;51.102;5.884;2022-08-21T09:52:56;22.85;57.93
71523;HTU21D;59343;51.102;5.884;2022-08-21T09:55:39;22.91;57.55
71523;HTU21D;59343;51.102;5.884;2022-08-21T09:58:33;22.97;57.45
71523;HTU21D;59343;51.102;5.884;2022-08-21T10:01:03;23.01;57.06
71523;HTU21D;59343;51.102;5.884;2022-08-21T10:03:29;23.05;57.03
71523;HTU21D;59343;51.102;5.884;2022-08-21T10:05:59;23.08;56.85
71523;HTU21D;59343;51.102;5.884;2022-08-21T10:08:28;23.11;56.58
71523;HTU21D;59343;51.102;5.884;2022-08-21T10:11:06;23.13;56.68
71523;HTU21D;59343;51.102;5.884;2022-08-21T10:13:57;23.14;56.71
71523;HTU21D;59343;51.102;5.884;2022-08-21T10:16:52;23.17;56.52
71523;HTU21D;59343;51.102;5.884;2022-08-21T10:20:02;23.23;56.07
71523;HTU21D;59343;51.102;5.884;2022-08-21T10:23:01;23.26;55.89
71523;HTU21D;59343;51.102;5.884;2022-08-21T10:25:54;23.31;56.10
71523;HTU21D;59343;51.102;5.884;2022-08-21T10:35:14;23.53;55.47
71523;HTU21D;59343;51.102;5.884;2022-08-21T10:37:25;23.58;55.29
71523;HTU21D;59343;51.102;5.884;2022-08-21T10:45:38;23.79;54.37
71523;HTU21D;59343;51.102;5.884;2022-08-21T10:48:21;23.79;54.10
71523;HTU21D;59343;51.102;5.884;2022-08-21T10:51:07;23.77;54.10
71523;HTU21D;59343;51.102;5.884;2022-08-21T10:53:37;23.84;53.70
71523;HTU21D;59343;51.102;5.884;2022-08-21T10:56:16;23.90;53.58
71523;HTU21D;59343;51.102;5.884;2022-08-21T11:01:33;24.00;53.62
71523;HTU21D;59343;51.102;5.884;2022-08-21T11:04:11;24.12;52.67
71523;HTU21D;59343;51.102;5.884;2022-08-21T11:06:45;24.18;52.38
71523;HTU21D;59343;51.102;5.884;2022-08-21T11:09:22;24.30;52.32
71523;HTU21D;59343;51.102;5.884;2022-08-21T11:12:03;24.40;52.07
71523;HTU21D;59343;51.102;5.884;2022-08-21T11:15:00;24.45;51.66
71523;HTU21D;59343;51.102;5.884;2022-08-21T11:23:38;24.44;52.15
71523;HTU21D;59343;51.102;5.884;2022-08-21T11:26:15;24.53;51.67
71523;HTU21D;59343;51.102;5.884;2022-08-21T11:29:04;24.57;51.95
71523;HTU21D;59343;51.102;5.884;2022-08-21T11:34:35;24.70;51.95
71523;HTU21D;59343;51.102;5.884;2022-08-21T11:37:17;24.76;50.90
71523;HTU21D;59343;51.102;5.884;2022-08-21T11:40:12;24.72;50.84
71523;HTU21D;59343;51.102;5.884;2022-08-21T11:50:43;24.93;49.81
71523;HTU21D;59343;51.102;5.884;2022-08-21T11:54:05;24.99;49.92
71523;HTU21D;59343;51.102;5.884;2022-08-21T11:56:15;25.07;49.46
71523;HTU21D;59343;51.102;5.884;2022-08-21T11:58:51;25.13;49.30
71523;HTU21D;59343;51.102;5.884;2022-08-21T12:01:33;25.17;48.79
71523;HTU21D;59343;51.102;5.884;2022-08-21T12:04:19;25.10;48.68
71523;HTU21D;59343;51.102;5.884;2022-08-21T12:06:48;25.16;48.71
71523;HTU21D;59343;51.102;5.884;2022-08-21T12:12:21;25.20;48.69
71523;HTU21D;59343;51.102;5.884;2022-08-21T12:14:50;25.25;48.30
71523;HTU21D;59343;51.102;5.884;2022-08-21T12:21:01;25.33;48.71
71523;HTU21D;59343;51.102;5.884;2022-08-21T12:23:31;25.38;48.72
71523;HTU21D;59343;51.102;5.884;2022-08-21T12:28:44;25.56;47.55
71523;HTU21D;59343;51.102;5.884;2022-08-21T12:31:25;25.62;47.55
71523;HTU21D;59343;51.102;5.884;2022-08-21T12:34:08;25.67;47.81
71523;HTU21D;59343;51.102;5.884;2022-08-21T12:36:54;25.78;47.62
71523;HTU21D;59343;51.102;5.884;2022-08-21T12:39:27;25.89;47.18
71523;HTU21D;59343;51.102;5.884;2022-08-21T12:44:51;25.80;46.14
71523;HTU21D;59343;51.102;5.884;2022-08-21T12:47:32;25.79;46.14
71523;HTU21D;59343;51.102;5.884;2022-08-21T12:50:09;25.79;46.08
71523;HTU21D;59343;51.102;5.884;2022-08-21T12:52:44;25.77;45.94
71523;HTU21D;59343;51.102;5.884;2022-08-21T12:55:14;25.71;45.96
71523;HTU21D;59343;51.102;5.884;2022-08-21T12:57:44;25.67;45.98
71523;HTU21D;59343;51.102;5.884;2022-08-21T13:00:12;25.69;45.91
71523;HTU21D;59343;51.102;5.884;2022-08-21T13:02:48;25.72;46.30
71523;HTU21D;59343;51.102;5.884;2022-08-21T13:05:33;25.82;46.03
71523;HTU21D;59343;51.102;5.884;2022-08-21T13:08:05;25.89;45.83
71523;HTU21D;59343;51.102;5.884;2022-08-21T13:10:34;25.86;45.57
71523;HTU21D;59343;51.102;5.884;2022-08-21T13:13:05;25.87;45.31
71523;HTU21D;59343;51.102;5.884;2022-08-21T13:15:42;25.86;45.13
71523;HTU21D;59343;51.102;5.884;2022-08-21T13:21:47;25.79;45.45
71523;HTU21D;59343;51.102;5.884;2022-08-21T13:24:18;25.78;45.33
71523;HTU21D;59343;51.102;5.884;2022-08-21T13:27:16;25.78;45.44
71523;HTU21D;59343;51.102;5.884;2022-08-21T13:29:42;25.76;45.42
71523;HTU21D;59343;51.102;5.884;2022-08-21T13:32:22;25.78;45.40
71523;HTU21D;59343;51.102;5.884;2022-08-21T13:34:52;25.77;45.09
71523;HTU21D;59343;51.102;5.884;2022-08-21T13:37:19;25.78;45.39
71523;HTU21D;59343;51.102;5.884;2022-08-21T13:39:52;25.90;45.39
71523;HTU21D;59343;51.102;5.884;2022-08-21T13:42:40;26.08;44.88
71523;HTU21D;59343;51.102;5.884;2022-08-21T13:45:12;26.22;44.37
71523;HTU21D;59343;51.102;5.884;2022-08-21T13:47:39;26.34;44.13
71523;HTU21D;59343;51.102;5.884;2022-08-21T13:50:05;26.45;44.13
71523;HTU21D;59343;51.102;5.884;2022-08-21T13:52:33;26.53;44.00
71523;HTU21D;59343;51.102;5.884;2022-08-21T13:55:09;26.62;43.69
71523;HTU21D;59343;51.102;5.884;2022-08-21T13:57:35;26.70;43.14
71523;HTU21D;59343;51.102;5.884;2022-08-21T14:00:14;26.76;42.66
71523;HTU21D;59343;51.102;5.884;2022-08-21T14:02:46;26.77;42.95
71523;HTU21D;59343;51.102;5.884;2022-08-21T14:05:27;26.75;42.46
71523;HTU21D;59343;51.102;5.884;2022-08-21T14:08:25;26.71;42.29
71523;HTU21D;59343;51.102;5.884;2022-08-21T14:10:53;26.75;42.50
71523;HTU21D;59343;51.102;5.884;2022-08-21T14:16:16;26.84;42.31
71523;HTU21D;59343;51.102;5.884;2022-08-21T14:18:52;26.83;42.49
71523;HTU21D;59343;51.102;5.884;2022-08-21T14:21:45;26.86;42.65
71523;HTU21D;59343;51.102;5.884;2022-08-21T14:24:39;26.79;42.50
71523;HTU21D;59343;51.102;5.884;2022-08-21T14:27:05;26.76;42.23
71523;HTU21D;59343;51.102;5.884;2022-08-21T14:29:56;26.81;42.20
71523;HTU21D;59343;51.102;5.884;2022-08-21T14:32:27;26.86;41.94
71523;HTU21D;59343;51.102;5.884;2022-08-21T14:34:56;26.86;41.41
71523;HTU21D;59343;51.102;5.884;2022-08-21T14:37:23;26.72;41.26
71523;HTU21D;59343;51.102;5.884;2022-08-21T14:39:49;26.66;41.40
71523;HTU21D;59343;51.102;5.884;2022-08-21T14:42:15;26.63;41.61
71523;HTU21D;59343;51.102;5.884;2022-08-21T14:44:42;26.66;42.18
71523;HTU21D;59343;51.102;5.884;2022-08-21T14:47:09;26.78;42.68
71523;HTU21D;59343;51.102;5.884;2022-08-21T14:49:35;26.91;42.48
71523;HTU21D;59343;51.102;5.884;2022-08-21T14:52:01;27.00;42.05
71523;HTU21D;59343;51.102;5.884;2022-08-21T14:54:30;27.05;41.62
71523;HTU21D;59343;51.102;5.884;2022-08-21T14:56:57;27.01;41.36
71523;HTU21D;59343;51.102;5.884;2022-08-21T14:59:24;26.95;41.41
71523;HTU21D;59343;51.102;5.884;2022-08-21T15:01:51;26.85;41.35
71523;HTU21D;59343;51.102;5.884;2022-08-21T15:04:17;26.73;41.62
71523;HTU21D;59343;51.102;5.884;2022-08-21T15:06:44;26.62;42.26
71523;HTU21D;59343;51.102;5.884;2022-08-21T15:09:09;26.45;42.82
71523;HTU21D;59343;51.102;5.884;2022-08-21T15:11:36;26.38;42.94
71523;HTU21D;59343;51.102;5.884;2022-08-21T15:14:07;26.43;42.98
71523;HTU21D;59343;51.102;5.884;2022-08-21T15:16:34;26.52;42.78
71523;HTU21D;59343;51.102;5.884;2022-08-21T15:19:00;26.51;42.32
71523;HTU21D;59343;51.102;5.884;2022-08-21T15:21:29;26.45;42.55
71523;HTU21D;59343;51.102;5.884;2022-08-21T15:23:54;26.42;42.83
71523;HTU21D;59343;51.102;5.884;2022-08-21T15:26:22;26.38;42.42
71523;HTU21D;59343;51.102;5.884;2022-08-21T15:28:49;26.34;42.34
71523;HTU21D;59343;51.102;5.884;2022-08-21T15:31:14;26.31;42.17
71523;HTU21D;59343;51.102;5.884;2022-08-21T15:33:40;26.30;42.22
71523;HTU21D;59343;51.102;5.884;2022-08-21T15:36:06;26.31;42.52
71523;HTU21D;59343;51.102;5.884;2022-08-21T15:38:32;26.31;42.84
71523;HTU21D;59343;51.102;5.884;2022-08-21T15:40:58;26.30;42.98
71523;HTU21D;59343;51.102;5.884;2022-08-21T15:43:28;26.28;43.06
71523;HTU21D;59343;51.102;5.884;2022-08-21T15:45:58;26.24;43.12
71523;HTU21D;59343;51.102;5.884;2022-08-21T15:48:24;26.20;43.32
71523;HTU21D;59343;51.102;5.884;2022-08-21T15:50:50;26.19;43.72
71523;HTU21D;59343;51.102;5.884;2022-08-21T15:53:16;26.19;43.77
71523;HTU21D;59343;51.102;5.884;2022-08-21T15:55:42;26.21;43.73
71523;HTU21D;59343;51.102;5.884;2022-08-21T15:58:13;26.21;43.71
71523;HTU21D;59343;51.102;5.884;2022-08-21T16:00:39;26.26;43.74
71523;HTU21D;59343;51.102;5.884;2022-08-21T16:03:08;26.31;43.44
71523;HTU21D;59343;51.102;5.884;2022-08-21T16:05:35;26.30;43.51
71523;HTU21D;59343;51.102;5.884;2022-08-21T16:08:01;26.22;43.77
71523;HTU21D;59343;51.102;5.884;2022-08-21T16:10:28;26.17;43.85
71523;HTU21D;59343;51.102;5.884;2022-08-21T16:12:57;26.11;44.06
71523;HTU21D;59343;51.102;5.884;2022-08-21T16:15:25;26.03;44.23
71523;HTU21D;59343;51.102;5.884;2022-08-21T16:17:52;25.90;44.42
71523;HTU21D;59343;51.102;5.884;2022-08-21T16:20:22;25.76;44.69
71523;HTU21D;59343;51.102;5.884;2022-08-21T16:22:51;25.67;44.82
71523;HTU21D;59343;51.102;5.884;2022-08-21T16:25:18;25.62;45.04
71523;HTU21D;59343;51.102;5.884;2022-08-21T16:27:48;25.63;45.09
71523;HTU21D;59343;51.102;5.884;2022-08-21T16:30:16;25.67;45.07
71523;HTU21D;59343;51.102;5.884;2022-08-21T16:32:43;25.69;45.16
71523;HTU21D;59343;51.102;5.884;2022-08-21T16:35:13;25.66;45.19
71523;HTU21D;59343;51.102;5.884;2022-08-21T16:37:40;25.60;45.03
71523;HTU21D;59343;51.102;5.884;2022-08-21T16:40:08;25.56;45.19
71523;HTU21D;59343;51.102;5.884;2022-08-21T16:42:36;25.52;45.19
71523;HTU21D;59343;51.102;5.884;2022-08-21T16:45:06;25.51;45.13
71523;HTU21D;59343;51.102;5.884;2022-08-21T16:47:32;25.48;45.03
71523;HTU21D;59343;51.102;5.884;2022-08-21T16:49:58;25.53;44.89
71523;HTU21D;59343;51.102;5.884;2022-08-21T16:52:24;25.58;45.01